createdAt,value
2022-07-30T00:00:07.698Z,50.93
2022-07-30T00:05:08.114Z,50.98
2022-07-30T00:10:07.866Z,51.05
2022-07-30T00:15:08.592Z,51.1
2022-07-30T00:20:08.286Z,51.13
2022-07-30T00:25:08.017Z,51.2
2022-07-30T00:30:08.365Z,51.2
2022-07-30T00:35:08.067Z,51.28
2022-07-30T00:40:07.784Z,51.33
2022-07-30T00:45:08.496Z,51.38
2022-07-30T00:50:08.230Z,51.41
2022-07-30T00:55:07.985Z,51.49
2022-07-30T01:00:07.696Z,51.51
2022-07-30T01:05:08.389Z,51.57
2022-07-30T01:10:08.098Z,51.64
2022-07-30T01:15:07.798Z,51.69
2022-07-30T01:20:08.525Z,51.79
2022-07-30T01:25:13.901Z,51.84
2022-07-30T01:30:08.611Z,51.9
2022-07-30T01:35:10.904Z,51.96
2022-07-30T01:40:08.637Z,52.0
2022-07-30T01:45:08.367Z,52.08
2022-07-30T01:50:08.064Z,52.14
2022-07-30T01:55:14.555Z,52.21
2022-07-30T02:00:08.035Z,52.24
2022-07-30T02:05:07.750Z,52.3
2022-07-30T02:10:08.528Z,52.34
2022-07-30T02:15:14.624Z,52.43
2022-07-30T02:20:10.017Z,52.44
2022-07-30T02:25:07.908Z,52.51
2022-07-30T02:30:08.622Z,52.57
2022-07-30T02:35:08.330Z,52.65
2022-07-30T02:40:08.086Z,52.66
2022-07-30T02:45:07.788Z,52.72
2022-07-30T02:50:08.523Z,52.79
2022-07-30T02:55:08.231Z,52.83
2022-07-30T03:00:07.970Z,52.87
2022-07-30T03:05:07.667Z,52.95
2022-07-30T03:10:08.383Z,52.98
2022-07-30T03:15:08.110Z,53.03
2022-07-30T03:20:07.828Z,53.1
2022-07-30T03:25:08.519Z,53.15
2022-07-30T03:30:08.237Z,53.16
2022-07-30T03:35:08.825Z,53.23
2022-07-30T03:40:07.977Z,53.29
2022-07-30T03:45:07.697Z,53.35
2022-07-30T03:50:08.426Z,53.39
2022-07-30T03:55:08.128Z,53.44
2022-07-30T04:00:07.861Z,53.47
2022-07-30T04:05:02.658Z,53.53
2022-07-30T04:10:02.496Z,53.57
2022-07-30T04:15:02.332Z,53.6
2022-07-30T04:20:02.162Z,53.63
2022-07-30T04:25:01.987Z,53.7
2022-07-30T04:30:02.112Z,53.74
2022-07-30T04:35:01.874Z,53.8
2022-07-30T04:40:02.612Z,53.8
2022-07-30T04:45:02.562Z,53.82
2022-07-30T04:50:02.470Z,53.82
2022-07-30T04:55:02.217Z,53.83
2022-07-30T05:00:02.078Z,53.85
2022-07-30T05:05:01.910Z,53.9
2022-07-30T05:10:02.639Z,53.9
2022-07-30T05:15:02.462Z,53.91
2022-07-30T05:20:02.304Z,53.92
2022-07-30T05:25:02.117Z,53.94
2022-07-30T05:30:01.951Z,53.96
2022-07-30T05:35:01.772Z,53.97
2022-07-30T05:40:03.739Z,53.99
2022-07-30T05:45:02.885Z,53.99
2022-07-30T05:50:04.999Z,53.99
2022-07-30T05:55:02.218Z,54.04
2022-07-30T06:00:02.059Z,54.0
2022-07-30T06:05:02.002Z,54.01
2022-07-30T06:10:01.929Z,54.05
2022-07-30T06:15:02.786Z,54.03
2022-07-30T06:20:02.745Z,54.04
2022-07-30T06:25:02.570Z,54.05
2022-07-30T06:30:02.164Z,54.04
2022-07-30T06:35:04.769Z,54.06
2022-07-30T06:40:02.061Z,54.03
2022-07-30T06:45:01.869Z,54.04
2022-07-30T06:50:02.739Z,54.02
2022-07-30T06:55:02.559Z,54.02
2022-07-30T07:00:02.438Z,54.01
2022-07-30T07:05:02.326Z,54.01
2022-07-30T07:10:02.067Z,54.0
2022-07-30T07:15:01.789Z,53.99
2022-07-30T07:20:02.967Z,53.96
2022-07-30T07:25:01.760Z,53.94
2022-07-30T07:30:05.605Z,53.94
2022-07-30T07:35:01.854Z,53.98
2022-07-30T07:40:02.609Z,54.0
2022-07-30T07:45:02.339Z,53.99
2022-07-30T07:50:02.168Z,53.98
2022-07-30T07:55:02.773Z,53.91
2022-07-30T08:00:01.714Z,53.93
2022-07-30T08:05:02.479Z,53.88
2022-07-30T08:10:02.413Z,53.84
2022-07-30T08:15:02.237Z,53.83
2022-07-30T08:20:01.998Z,53.77
2022-07-30T08:25:01.787Z,53.68
2022-07-30T08:30:02.689Z,53.71
2022-07-30T08:35:02.462Z,53.62
2022-07-30T08:40:02.628Z,53.55
2022-07-30T08:45:02.491Z,53.54
2022-07-30T08:50:04.632Z,53.51
2022-07-30T08:55:02.409Z,53.46
2022-07-30T09:00:02.332Z,53.39
2022-07-30T09:05:02.186Z,53.36
2022-07-30T09:10:02.117Z,53.34
2022-07-30T09:15:01.948Z,53.31
2022-07-30T09:20:01.762Z,53.24
2022-07-30T09:25:02.647Z,53.11
2022-07-30T09:30:02.484Z,53.05
2022-07-30T09:35:02.369Z,52.89
2022-07-30T09:40:02.144Z,52.82
2022-07-30T09:45:01.960Z,52.7
2022-07-30T09:50:09.866Z,52.54
2022-07-30T09:55:03.531Z,52.48
2022-07-30T10:00:02.367Z,52.42
2022-07-30T10:05:09.121Z,52.41
2022-07-30T10:10:01.929Z,52.3
2022-07-30T10:15:02.015Z,52.23
2022-07-30T10:20:03.151Z,52.15
2022-07-30T10:25:02.142Z,51.97
2022-07-30T10:30:03.609Z,51.88
2022-07-30T10:35:02.030Z,51.75
2022-07-30T10:40:02.967Z,51.73
2022-07-30T10:45:17.216Z,51.66
2022-07-30T10:50:02.767Z,51.59
2022-07-30T10:55:02.700Z,51.4
2022-07-30T11:00:04.244Z,51.34
2022-07-30T11:05:02.263Z,51.25
2022-07-30T11:10:05.350Z,51.19
2022-07-30T11:15:06.489Z,50.99
2022-07-30T11:20:02.321Z,50.81
2022-07-30T11:25:05.459Z,50.64
2022-07-30T11:30:02.738Z,50.51
2022-07-30T11:35:02.567Z,50.3
2022-07-30T11:40:02.635Z,50.16
2022-07-30T11:45:12.408Z,50.0
2022-07-30T11:50:02.194Z,49.87
2022-07-30T11:55:02.207Z,49.65
2022-07-30T12:00:02.547Z,49.47
2022-07-30T12:05:03.518Z,49.33
2022-07-30T12:10:12.410Z,49.18
2022-07-30T12:15:02.241Z,49.03
2022-07-30T12:20:02.172Z,48.79
2022-07-30T12:25:02.122Z,48.68
2022-07-30T12:30:01.937Z,48.42
2022-07-30T12:35:02.588Z,48.24
2022-07-30T12:40:14.947Z,48.03
2022-07-30T12:45:02.060Z,47.99
2022-07-30T12:50:01.996Z,47.95
2022-07-30T12:55:02.054Z,47.91
2022-07-30T13:00:01.846Z,47.89
2022-07-30T13:05:11.290Z,47.9
2022-07-30T13:10:02.670Z,47.86
2022-07-30T13:15:02.522Z,47.86
2022-07-30T13:20:02.317Z,47.74
2022-07-30T13:25:02.079Z,47.67
2022-07-30T13:30:02.067Z,47.58
2022-07-30T13:35:02.281Z,47.52
2022-07-30T13:40:02.253Z,47.36
2022-07-30T13:45:02.097Z,47.34
2022-07-30T13:50:01.942Z,47.18
2022-07-30T13:55:02.757Z,47.13
2022-07-30T14:00:02.598Z,47.03
2022-07-30T14:05:02.418Z,46.99
2022-07-30T14:10:02.459Z,46.96
2022-07-30T14:15:02.315Z,46.93
2022-07-30T14:20:02.131Z,46.84
2022-07-30T14:25:01.955Z,46.76
2022-07-30T14:30:01.873Z,46.72
2022-07-30T14:35:02.966Z,46.67
2022-07-30T14:40:01.839Z,46.63
2022-07-30T14:45:02.771Z,46.63
2022-07-30T14:50:02.654Z,46.63
2022-07-30T14:55:03.942Z,46.59
2022-07-30T15:00:02.629Z,46.63
2022-07-30T15:05:02.452Z,46.62
2022-07-30T15:10:02.351Z,46.63
2022-07-30T15:15:02.228Z,46.59
2022-07-30T15:20:02.495Z,46.61
2022-07-30T15:25:02.289Z,46.6
2022-07-30T15:30:02.055Z,46.57
2022-07-30T15:35:01.861Z,46.52
2022-07-30T15:40:02.644Z,46.56
2022-07-30T15:45:16.647Z,46.6
2022-07-30T15:50:02.797Z,46.59
2022-07-30T15:55:02.495Z,46.6
2022-07-30T16:00:02.390Z,46.6
2022-07-30T16:05:02.207Z,46.65
2022-07-30T16:10:02.105Z,46.65
2022-07-30T16:15:01.849Z,46.68
2022-07-30T16:20:02.607Z,46.69
2022-07-30T16:25:02.431Z,46.7
2022-07-30T16:30:02.262Z,46.7
2022-07-30T16:35:01.996Z,46.71
2022-07-30T16:40:01.877Z,46.77
2022-07-30T16:45:02.687Z,46.78
2022-07-30T16:50:02.520Z,46.82
2022-07-30T16:55:02.345Z,46.85
2022-07-30T17:00:02.207Z,46.86
2022-07-30T17:05:01.999Z,46.89
2022-07-30T17:10:01.894Z,46.93
2022-07-30T17:15:02.817Z,46.94
2022-07-30T17:20:02.723Z,46.96
2022-07-30T17:25:02.727Z,46.94
2022-07-30T17:30:02.707Z,46.94
2022-07-30T17:35:02.645Z,46.95
2022-07-30T17:40:27.823Z,46.98
2022-07-30T17:45:01.911Z,46.98
2022-07-30T17:50:02.949Z,47.02
2022-07-30T17:55:01.768Z,47.03
2022-07-30T18:00:02.635Z,47.07
2022-07-30T18:05:02.429Z,47.1
2022-07-30T18:10:02.259Z,47.14
2022-07-30T18:15:02.003Z,47.16
2022-07-30T18:20:01.794Z,47.2
2022-07-30T18:25:02.600Z,47.24
2022-07-30T18:30:02.434Z,47.27
2022-07-30T18:35:02.249Z,47.31
2022-07-30T18:40:01.997Z,47.35
2022-07-30T18:45:02.248Z,47.37
2022-07-30T18:50:02.155Z,47.42
2022-07-30T18:55:02.025Z,47.43
2022-07-30T19:00:01.802Z,47.47
2022-07-30T19:05:02.601Z,47.49
2022-07-30T19:10:02.417Z,47.55
2022-07-30T19:15:02.272Z,47.6
2022-07-30T19:20:02.552Z,47.63
2022-07-30T19:25:02.290Z,47.68
2022-07-30T19:30:02.053Z,47.7
2022-07-30T19:35:02.537Z,47.76
2022-07-30T19:40:06.718Z,47.83
2022-07-30T19:45:04.252Z,47.84
2022-07-30T19:50:01.881Z,47.9
2022-07-30T19:55:02.947Z,47.92
2022-07-30T20:00:04.587Z,47.96
2022-07-30T20:05:02.702Z,48.0
2022-07-30T20:10:01.928Z,48.06
2022-07-30T20:15:02.891Z,48.07
2022-07-30T20:20:02.597Z,48.11
2022-07-30T20:25:02.131Z,48.16
2022-07-30T20:30:02.276Z,48.22
2022-07-30T20:35:02.089Z,48.25
2022-07-30T20:40:01.935Z,48.29
2022-07-30T20:45:02.843Z,48.34
2022-07-30T20:50:01.914Z,48.35
2022-07-30T20:55:02.848Z,48.39
2022-07-30T21:00:02.680Z,48.41
2022-07-30T21:05:02.441Z,48.45
2022-07-30T21:10:01.829Z,48.5
2022-07-30T21:15:01.896Z,48.53
2022-07-30T21:20:02.759Z,48.59
2022-07-30T21:25:01.743Z,48.61
2022-07-30T21:30:01.999Z,48.64
2022-07-30T21:35:14.641Z,48.68
2022-07-30T21:40:08.133Z,48.73
2022-07-30T21:45:08.618Z,48.75
2022-07-30T21:50:08.309Z,48.79
2022-07-30T21:55:07.779Z,48.81
2022-07-30T22:00:08.523Z,48.84
2022-07-30T22:05:08.428Z,48.89
2022-07-30T22:10:08.433Z,48.94
2022-07-30T22:15:08.458Z,48.98
2022-07-30T22:25:09.618Z,49.05
2022-07-30T22:30:08.618Z,49.1
2022-07-30T22:35:08.345Z,49.08
2022-07-30T22:40:07.651Z,49.12
2022-07-30T22:45:08.403Z,49.17
2022-07-30T22:50:08.314Z,49.21
2022-07-30T22:55:10.214Z,49.21
2022-07-30T23:00:58.592Z,49.26
2022-07-30T23:05:08.632Z,49.28
2022-07-30T23:10:17.350Z,49.32
2022-07-30T23:12:31.286Z,49.0
2022-07-30T23:15:09.446Z,49.34
2022-07-30T23:20:08.164Z,49.37
2022-07-30T23:25:07.911Z,49.41
2022-07-30T23:30:08.626Z,49.43
2022-07-30T23:35:08.351Z,49.45
2022-07-30T23:40:08.091Z,49.52
2022-07-30T23:45:07.822Z,49.54
2022-07-30T23:50:08.581Z,49.55
2022-07-30T23:55:08.276Z,49.56
